Terminal Aerodrome Forecast
Issued by NWS Atlanta, GA

Home | Current Version | Previous Version | Text Only | Print | Product List | Glossary On
Versions: 1 2 3 4 5 6 7 8 9 10 11 12 13 14 15 16 17 18 19 20 21 22 23 24 25 26
000
FTUS42 KFFC 062320
TAFCSG
TAF
KCSG 062320Z 0700/0724 12003KT P6SM BKN080
     FM070200 10003KT P6SM OVC050
     FM070600 09003KT P6SM BKN030
     FM071200 07003KT P6SM FEW030 BKN040
     FM071600 07005KT P6SM BKN060=

USA.gov is the U.S. government's official web portal to all federal, state and local government web resources and services.